createdAt,value
2022-09-03T00:19:37.477Z,95928.33
2022-09-03T00:23:33.527Z,95925.66
2022-09-03T00:27:24.570Z,95921.52
2022-09-03T00:31:15.824Z,95919.77
2022-09-03T00:45:06.794Z,95926.52
2022-09-03T00:49:02.774Z,95922.57
2022-09-03T00:53:06.610Z,95918.48
2022-09-03T01:06:21.055Z,95923.13
2022-09-03T01:10:19.353Z,95926.31
2022-09-03T01:14:12.517Z,95927.29
2022-09-03T01:18:41.863Z,95921.34
2022-09-03T01:22:50.715Z,95923.00
2022-09-03T01:26:45.141Z,95928.15
2022-09-03T01:30:15.494Z,95935.54
2022-09-03T01:34:08.444Z,95936.36
2022-09-03T01:38:18.497Z,95937.38
2022-09-03T01:42:12.545Z,95931.42
2022-09-03T01:46:17.904Z,95934.70
2022-09-03T01:50:13.877Z,95933.65
2022-09-03T01:54:20.847Z,95932.61
2022-09-03T01:57:35.382Z,95934.46
2022-09-03T02:06:08.185Z,95942.73
2022-09-03T02:10:01.158Z,95943.67
2022-09-03T02:13:51.234Z,95948.66
2022-09-03T02:17:42.081Z,95952.23
2022-09-03T02:21:31.853Z,95952.95
2022-09-03T02:25:21.895Z,95953.25
2022-09-03T02:29:11.664Z,95953.92
2022-09-03T02:32:43.777Z,95957.60
2022-09-03T02:36:35.016Z,95957.80
2022-09-03T02:40:23.609Z,95953.84
2022-09-03T02:44:15.114Z,95952.01
2022-09-03T02:48:05.116Z,95951.73
2022-09-03T02:51:58.509Z,95957.86
2022-09-03T02:55:50.006Z,95959.92
2022-09-03T03:06:26.141Z,95961.59
2022-09-03T03:08:55.302Z,95961.27
2022-09-03T03:31:20.223Z,95965.60
2022-09-03T03:35:12.429Z,95965.14
2022-09-03T03:43:36.825Z,95956.91
2022-09-03T03:47:32.671Z,95955.61
2022-09-03T03:51:46.757Z,95955.50
2022-09-03T03:55:36.832Z,95956.10
2022-09-03T04:04:56.440Z,95946.93
2022-09-03T04:08:51.670Z,95948.89
2022-09-03T04:12:23.621Z,95951.24
2022-09-03T04:16:14.590Z,95953.39
2022-09-03T04:20:06.427Z,95951.38
2022-09-03T04:23:56.113Z,95953.66
2022-09-03T04:27:46.144Z,95958.77
2022-09-03T04:31:16.645Z,95960.73
2022-09-03T04:35:06.758Z,95964.35
2022-09-03T04:38:56.695Z,95968.47
2022-09-03T04:42:26.402Z,95973.70
2022-09-03T04:46:18.397Z,95974.71
2022-09-03T04:50:09.162Z,95967.77
2022-09-03T04:54:04.561Z,95966.02
2022-09-03T04:57:54.833Z,95970.42
2022-09-03T05:16:17.277Z,95983.92
2022-09-03T05:24:56.077Z,95978.58
2022-09-03T05:28:49.144Z,95991.14
2022-09-03T05:32:44.869Z,95998.97
2022-09-03T05:38:43.966Z,96002.75
2022-09-03T05:41:35.170Z,96006.98
2022-09-03T05:55:24.356Z,96020.84
2022-09-03T05:59:16.697Z,96014.05
2022-09-03T06:03:09.058Z,96017.85
2022-09-03T06:07:00.328Z,96023.17
2022-09-03T06:10:49.884Z,96026.13
2022-09-03T06:14:23.614Z,96027.58
2022-09-03T06:18:12.688Z,96031.98
2022-09-03T06:20:58.392Z,96035.47
2022-09-03T06:24:22.264Z,96036.88
2022-09-03T06:28:14.429Z,96036.05
2022-09-03T06:31:43.549Z,96037.89
2022-09-03T06:39:33.382Z,96043.77
2022-09-03T06:43:22.118Z,96047.54
2022-09-03T06:47:10.846Z,96049.14
2022-09-03T06:50:59.753Z,96045.00
2022-09-03T06:54:48.682Z,96040.88
2022-09-03T06:58:37.592Z,96037.44
2022-09-03T07:02:26.831Z,96043.17
2022-09-03T07:06:15.837Z,96044.58
2022-09-03T07:10:04.838Z,96044.84
2022-09-03T07:13:53.743Z,96051.90
2022-09-03T07:17:42.610Z,96059.52
2022-09-03T07:21:31.194Z,96060.27
2022-09-03T07:25:19.486Z,96069.08
2022-09-03T07:28:28.699Z,96072.09
2022-09-03T07:32:23.129Z,96071.34
2022-09-03T07:36:11.365Z,96077.47
2022-09-03T07:39:40.477Z,96082.85
2022-09-03T07:43:29.107Z,96083.24
2022-09-03T07:47:08.803Z,96084.54
2022-09-03T07:50:57.330Z,96086.02
2022-09-03T07:54:45.949Z,96089.61
2022-09-03T07:58:36.558Z,96093.11
2022-09-03T08:02:05.735Z,96090.40
2022-09-03T08:05:54.291Z,96092.09
2022-09-03T08:09:42.838Z,96094.95
2022-09-03T08:13:31.763Z,96098.91
2022-09-03T08:17:20.294Z,96104.91
2022-09-03T08:21:09.290Z,96106.38
2022-09-03T08:24:58.172Z,96106.02
2022-09-03T08:28:34.468Z,96106.02
2022-09-03T08:32:23.314Z,96106.05
2022-09-03T08:36:11.850Z,96100.57
2022-09-03T08:39:20.827Z,96103.30
2022-09-03T08:42:29.985Z,96107.11
2022-09-03T08:46:18.636Z,96108.31
2022-09-03T08:50:10.259Z,96109.39
2022-09-03T08:53:45.182Z,96110.42
2022-09-03T08:57:33.414Z,96112.25
2022-09-03T09:01:03.206Z,96113.93
2022-09-03T09:04:37.897Z,96115.23
2022-09-03T09:08:34.704Z,96116.73
2022-09-03T09:12:14.377Z,96113.85
2022-09-03T09:16:09.179Z,96116.56
2022-09-03T09:19:59.039Z,96115.40
2022-09-03T09:23:45.677Z,96118.09
2022-09-03T09:27:16.116Z,96122.98
2022-09-03T09:31:04.572Z,96127.63
2022-09-03T09:34:53.423Z,96130.45
2022-09-03T09:38:31.295Z,96129.06
2022-09-03T09:42:00.362Z,96133.59
2022-09-03T09:45:28.256Z,96137.30
2022-09-03T09:48:59.974Z,96136.89
2022-09-03T09:52:48.161Z,96141.23
2022-09-03T09:55:58.408Z,96137.67
2022-09-03T09:59:08.781Z,96140.23
2022-09-03T10:03:09.874Z,96142.83
2022-09-03T10:07:16.200Z,96141.86
2022-09-03T10:11:05.020Z,96140.30
2022-09-03T10:14:53.871Z,96141.86
2022-09-03T10:18:42.394Z,96143.04
2022-09-03T10:22:32.356Z,96143.95
2022-09-03T10:26:36.141Z,96144.64
2022-09-03T10:30:24.990Z,96145.52
2022-09-03T10:34:16.604Z,96143.98
2022-09-03T10:38:03.878Z,96139.97
2022-09-03T10:41:58.706Z,96136.29
2022-09-03T10:45:58.955Z,96125.63
2022-09-03T10:49:46.461Z,96118.65
2022-09-03T10:53:35.354Z,96115.69
2022-09-03T10:57:03.519Z,96116.77
2022-09-03T11:00:39.879Z,96115.95
2022-09-03T11:04:59.097Z,96111.36
2022-09-03T11:08:56.646Z,96110.72
2022-09-03T11:12:53.171Z,96111.20
2022-09-03T11:16:45.224Z,96109.43
2022-09-03T11:20:34.391Z,96108.38
2022-09-03T11:24:23.215Z,96106.95
2022-09-03T11:28:24.151Z,96107.95
2022-09-03T11:32:14.041Z,96107.58
2022-09-03T11:35:42.543Z,96110.85
2022-09-03T11:39:31.543Z,96107.64
2022-09-03T11:43:26.684Z,96103.99
2022-09-03T11:47:23.069Z,96103.23
2022-09-03T11:51:20.731Z,96108.16
2022-09-03T11:55:24.485Z,96108.88
2022-09-03T11:59:11.802Z,96111.42
2022-09-03T12:03:06.486Z,96113.52
2022-09-03T12:07:20.869Z,96111.77
2022-09-03T12:11:12.520Z,96113.48
2022-09-03T12:15:06.092Z,96110.59
2022-09-03T12:18:54.904Z,96114.11
2022-09-03T12:22:43.857Z,96120.02
2022-09-03T12:26:32.784Z,96118.30
2022-09-03T12:30:21.774Z,96120.84
2022-09-03T12:34:11.084Z,96119.05
2022-09-03T12:38:09.309Z,96116.38
2022-09-03T12:42:05.441Z,96109.90
2022-09-03T12:46:10.461Z,96105.52
2022-09-03T12:49:59.878Z,96102.54
2022-09-03T12:53:49.695Z,96099.52
2022-09-03T12:57:18.385Z,96096.13
2022-09-03T13:01:07.700Z,96099.31
2022-09-03T13:04:56.642Z,96104.92
2022-09-03T13:08:48.650Z,96108.07
2022-09-03T13:12:37.525Z,96112.17
2022-09-03T13:16:24.798Z,96117.16
2022-09-03T13:20:28.592Z,96116.82
2022-09-03T13:24:38.397Z,96115.30
2022-09-03T13:28:39.345Z,96113.58
2022-09-03T13:32:36.797Z,96115.29
2022-09-03T13:50:48.963Z,96122.52
2022-09-03T13:54:52.891Z,96124.16
2022-09-03T13:58:41.735Z,96121.90
2022-09-03T14:02:42.666Z,96124.79
2022-09-03T14:06:46.516Z,96128.15
2022-09-03T14:10:44.320Z,96130.92
2022-09-03T14:14:43.935Z,96131.52
2022-09-03T14:18:50.981Z,96126.65
2022-09-03T14:22:51.815Z,96123.89
2022-09-03T14:26:40.713Z,96126.31
2022-09-03T14:30:35.618Z,96127.70
2022-09-03T14:34:33.489Z,96125.70
2022-09-03T14:38:25.895Z,96126.73
2022-09-03T14:42:17.940Z,96130.48
2022-09-03T14:46:18.994Z,96129.23
2022-09-03T14:50:38.358Z,96127.98
2022-09-03T14:54:28.472Z,96133.74
2022-09-03T14:58:23.341Z,96134.48
2022-09-03T15:02:15.055Z,96137.46
2022-09-03T15:06:30.939Z,96139.23
2022-09-03T15:10:35.206Z,96137.94
2022-09-03T15:14:22.308Z,96138.55
2022-09-03T15:18:02.930Z,96138.35
2022-09-03T15:22:07.016Z,96136.34
2022-09-03T15:26:04.806Z,96143.30
2022-09-03T15:30:14.588Z,96140.96
2022-09-03T15:34:09.247Z,96145.54
2022-09-03T15:37:58.079Z,96148.02
2022-09-03T15:41:46.955Z,96149.17
2022-09-03T15:45:35.964Z,96150.61
2022-09-03T15:49:28.255Z,96151.70
2022-09-03T15:53:24.813Z,96154.30
2022-09-03T15:57:16.963Z,96150.28
2022-09-03T16:01:09.087Z,96155.94
2022-09-03T16:05:01.127Z,96159.71
2022-09-03T16:08:53.059Z,96165.80
2022-09-03T16:12:40.475Z,96166.39
2022-09-03T16:16:38.710Z,96167.30
2022-09-03T16:20:27.790Z,96166.20
2022-09-03T16:24:28.765Z,96165.20
2022-09-03T16:28:23.593Z,96167.48
2022-09-03T16:32:12.477Z,96170.48
2022-09-03T16:36:10.367Z,96169.95
2022-09-03T16:40:17.068Z,96171.49
2022-09-03T16:44:33.454Z,96173.06
2022-09-03T16:48:22.356Z,96172.80
2022-09-03T16:52:37.816Z,96175.27
2022-09-03T16:56:28.867Z,96181.38
2022-09-03T17:00:35.917Z,96187.28
2022-09-03T17:04:32.077Z,96191.79
2022-09-03T17:08:34.434Z,96192.96
2022-09-03T17:12:29.159Z,96191.87
2022-09-03T17:16:29.837Z,96190.86
2022-09-03T17:20:36.631Z,96200.10
2022-09-03T17:24:32.943Z,96205.55
2022-09-03T17:28:25.470Z,96204.54
2022-09-03T17:32:29.472Z,96208.71
2022-09-03T17:36:18.387Z,96217.84
2022-09-03T17:40:10.276Z,96226.54
2022-09-03T17:43:55.854Z,96228.15
2022-09-03T17:47:59.791Z,96231.64
2022-09-03T17:52:12.638Z,96239.54
2022-09-03T17:56:10.452Z,96244.51
2022-09-03T18:00:17.853Z,96244.01
2022-09-03T18:04:21.857Z,96242.30
2022-09-03T18:08:32.098Z,96244.66
2022-09-03T18:12:21.017Z,96251.54
2022-09-03T18:16:10.183Z,96257.34
2022-09-03T18:20:09.449Z,96262.05
2022-09-03T18:24:07.210Z,96266.66
2022-09-03T18:28:00.181Z,96263.89
2022-09-03T18:31:47.280Z,96262.99
2022-09-03T18:35:34.239Z,96258.20
2022-09-03T18:39:24.245Z,96258.18
2022-09-03T18:43:00.328Z,96263.14
2022-09-03T18:48:01.099Z,96266.98
2022-09-03T18:51:03.563Z,96269.47
2022-09-03T18:55:20.892Z,96269.09
2022-09-03T18:59:34.926Z,96273.08
2022-09-03T19:03:23.410Z,96274.45
2022-09-03T19:07:19.579Z,96277.71
2022-09-03T19:11:30.951Z,96280.43
2022-09-03T19:15:23.951Z,96282.92
2022-09-03T19:19:19.981Z,96283.70
2022-09-03T19:23:15.840Z,96288.06
2022-09-03T19:27:29.961Z,96290.52
2022-09-03T19:31:21.802Z,96293.30
2022-09-03T19:35:13.513Z,96298.32
2022-09-03T19:39:12.705Z,96299.19
2022-09-03T19:43:01.782Z,96301.14
2022-09-03T19:46:53.507Z,96302.02
2022-09-03T19:51:01.775Z,96304.39
2022-09-03T19:54:36.551Z,96303.86
2022-09-03T19:58:41.918Z,96308.33
2022-09-03T20:02:33.008Z,96309.20
2022-09-03T20:05:59.553Z,96310.60
2022-09-03T20:09:46.442Z,96312.27
2022-09-03T20:13:35.450Z,96311.73
2022-09-03T20:17:48.440Z,96311.38
2022-09-03T20:22:01.527Z,96304.61
2022-09-03T20:25:53.221Z,96308.06
2022-09-03T20:29:46.233Z,96310.77
2022-09-03T20:33:38.291Z,96314.50
2022-09-03T20:37:38.119Z,96317.65
2022-09-03T20:41:42.373Z,96321.05
2022-09-03T20:45:42.393Z,96318.56
2022-09-03T20:49:51.252Z,96321.86
2022-09-03T20:53:47.352Z,96320.66
2022-09-03T20:57:51.180Z,96321.91
2022-09-03T21:01:46.005Z,96325.33
2022-09-03T21:05:46.156Z,96324.06
2022-09-03T21:09:52.950Z,96321.61
2022-09-03T21:13:54.273Z,96326.10
2022-09-03T21:18:03.748Z,96321.27
2022-09-03T21:21:36.319Z,96319.27
2022-09-03T21:25:28.539Z,96316.79
2022-09-03T21:29:22.377Z,96313.89
2022-09-03T21:33:33.413Z,96318.98
2022-09-03T21:36:55.011Z,96327.59
2022-09-03T21:40:43.861Z,96334.27
2022-09-03T21:44:47.540Z,96336.51
2022-09-03T21:48:44.934Z,96340.95
2022-09-03T21:52:38.878Z,96338.26
2022-09-03T21:56:13.194Z,96332.27
2022-09-03T22:00:10.864Z,96331.64
2022-09-03T22:03:43.377Z,96327.77
2022-09-03T22:07:17.041Z,96331.14
2022-09-03T22:11:14.531Z,96329.57
2022-09-03T22:15:14.953Z,96331.50
2022-09-03T22:19:06.261Z,96335.11
2022-09-03T22:22:41.510Z,96339.23
2022-09-03T22:26:30.078Z,96341.63
2022-09-03T22:30:08.668Z,96340.49
2022-09-03T22:33:23.339Z,96342.06
2022-09-03T22:37:14.497Z,96341.35
2022-09-03T22:40:44.307Z,96342.09
2022-09-03T22:44:23.559Z,96342.98
2022-09-03T22:47:54.471Z,96345.45
2022-09-03T22:51:32.524Z,96347.99
2022-09-03T22:55:02.081Z,96350.05
2022-09-03T22:58:11.062Z,96348.45
2022-09-03T23:01:20.918Z,96349.60
2022-09-03T23:04:13.130Z,96351.59
2022-09-03T23:07:22.028Z,96352.38
2022-09-03T23:10:13.082Z,96350.10
2022-09-03T23:13:17.688Z,96351.15
2022-09-03T23:16:14.291Z,96349.37
2022-09-03T23:18:46.075Z,96346.93
2022-09-03T23:21:41.097Z,96349.35
2022-09-03T23:24:42.375Z,96345.35
2022-09-03T23:27:43.894Z,96347.54
2022-09-03T23:30:54.454Z,96345.45
2022-09-03T23:33:51.037Z,96343.67
2022-09-03T23:41:06.287Z,96345.30
2022-09-03T23:44:00.611Z,96348.10
2022-09-03T23:47:36.725Z,96352.71
2022-09-03T23:50:38.205Z,96356.91
2022-09-03T23:54:02.365Z,96355.83
2022-09-03T23:57:50.035Z,96356.27
